CSAV Traiguen — D5EP4 — position and weather

sailwx.info

Track history (hours):
 
Tides and Currents Weather Stations Pressure Air Temp Water Temp Dewpoint Dewpoint Depression Visibility Wind Speed Wind Dir Waves Ship Positions

CSAV Traiguen

Last reported at 2018-Aug-17 11:28 UTC. Time now 2018-Aug-17 11:40 UTC.
Position N 39°26' W 000°20'.

Length 300 m; draft 11.5 m.

Type: Ship (hazmat cat D). MMSI: 636016125.

Date/timePositionNaut miles runAvg speedWind from/ knotsBaromVisibWave heightAir tempDewpointWater temp
2018-Aug-17 11:28N 39°26' W 000°20'0 0.0
2018-Aug-17 10:58N 39°26' W 000°20'0 0.0
2018-Aug-17 10:28N 39°26' W 000°20'0 0.0
2018-Aug-17 09:58N 39°26' W 000°20'0 0.0
2018-Aug-17 09:28N 39°26' W 000°20'0 0.0
2018-Aug-17 08:58N 39°26' W 000°20'0 0.0
2018-Aug-17 08:28N 39°26' W 000°20'0 0.0
2018-Aug-17 07:58N 39°26' W 000°20'0 0.0
2018-Aug-17 07:28N 39°26' W 000°20'0 0.0
2018-Aug-17 06:58N 39°26' W 000°20'0 0.0
2018-Aug-17 06:28N 39°26' W 000°20'0 0.0
2018-Aug-17 05:58N 39°26' W 000°20'0 0.0
2018-Aug-17 05:28N 39°26' W 000°20'0 0.0
2018-Aug-17 04:58N 39°26' W 000°20'0 0.0
2018-Aug-17 04:28N 39°26' W 000°20'0 0.0
2018-Aug-17 03:58N 39°26' W 000°20'0 0.0
2018-Aug-17 03:28N 39°26' W 000°20'0 0.0
2018-Aug-17 02:58N 39°26' W 000°20'0 0.0
2018-Aug-17 02:28N 39°26' W 000°20'0 0.0
2018-Aug-17 01:58N 39°26' W 000°20'0 0.0
2018-Aug-17 01:28N 39°26' W 000°20'0 0.0
2018-Aug-17 00:58N 39°26' W 000°20'0 0.0
2018-Aug-17 00:28N 39°26' W 000°20'0 0.0
2018-Aug-16 23:58N 39°26' W 000°20'0 0.0
2018-Aug-16 23:28N 39°26' W 000°20'0 0.0
2018-Aug-16 22:58N 39°26' W 000°20'0 0.0
2018-Aug-16 22:28N 39°26' W 000°20'0 0.0
2018-Aug-16 21:58N 39°26' W 000°20'0 0.0
2018-Aug-16 21:28N 39°26' W 000°20'0 0.0
2018-Aug-16 20:58N 39°26' W 000°20'0 0.0
2018-Aug-16 20:28N 39°26' W 000°20'0 0.0
2018-Aug-16 19:58N 39°26' W 000°20'0 0.0
2018-Aug-16 19:28N 39°26' W 000°20'0 0.0
2018-Aug-16 18:58N 39°26' W 000°20'0 0.0
2018-Aug-16 18:28N 39°26' W 000°20'0 0.0
2018-Aug-16 17:58N 39°26' W 000°20'0 0.0
2018-Aug-16 17:28N 39°26' W 000°20'0 0.0
2018-Aug-16 16:58N 39°26' W 000°20'0 0.0
2018-Aug-16 16:28N 39°26' W 000°20'0 0.0
2018-Aug-16 15:58N 39°26' W 000°20'0 0.0
2018-Aug-16 15:28N 39°26' W 000°20'0 0.0
2018-Aug-16 14:58N 39°26' W 000°20'0 0.0
2018-Aug-16 14:28N 39°26' W 000°20'0 0.0
2018-Aug-16 13:58N 39°26' W 000°20'0 0.0
2018-Aug-16 13:28N 39°26' W 000°20'0 0.3
2018-Aug-16 12:59N 39°26' W 000°20'0 0.0
2018-Aug-16 11:56N 39°26' W 000°20'0 0.0
2018-Aug-16 11:23N 39°26' W 000°20'0 0.0
2018-Aug-16 10:50N 39°26' W 000°20'0 0.0
2018-Aug-16 09:59N 39°26' W 000°20'0 0.0
2018-Aug-16 09:29N 39°26' W 000°20'0 0.0
2018-Aug-16 08:59N 39°26' W 000°20'0 0.0
2018-Aug-16 08:26N 39°26' W 000°19'0 0.0
2018-Aug-16 07:53N 39°26' W 000°20'0 0.0
2018-Aug-16 07:29N 39°26' W 000°20'0 0.0
2018-Aug-15 16:14N 39°26' W 000°19'0 1.8
2018-Aug-15 16:00N 39°26' W 000°19'3 5.7
2018-Aug-15 15:30N 39°25' W 000°16'3 6.5
2018-Aug-15 15:00N 39°24' W 000°12'4 1.6
2018-Aug-15 12:29N 39°23' W 000°06'0 0.7
2018-Aug-15 12:00N 39°23' W 000°06'1 0.7
2018-Aug-15 10:38N 39°24' W 000°05'0 0.7
2018-Aug-15 10:30N 39°24' W 000°05'0 0.7
2018-Aug-15 09:53N 39°24' W 000°05'0 0.7
2018-Aug-15 09:18N 39°25' W 000°04'1 0.7
2018-Aug-15 08:07N 39°25' W 000°04'0 0.7
2018-Aug-15 08:00N 39°25' W 000°04'1 1.0
2018-Aug-15 06:46N 39°25' W 000°02'9815.8
2018-Aug-15 00:35N 39°12' E 002°03'116.0
2018-Aug-15 00:30N 39°11' E 002°04'815.8
2018-Aug-15 00:00N 39°10' E 002°14'815.8
2018-Aug-14 23:30N 39°08' E 002°24'815.8
2018-Aug-14 22:59N 39°06' E 002°34'715.8
2018-Aug-14 22:30N 39°04' E 002°44'815.9
2018-Aug-14 22:00N 39°02' E 002°54'815.9
2018-Aug-14 21:30N 39°01' E 003°04'45617.9
2018-Aug-13 20:02N 36°54' E 012°19'119.3
2018-Aug-13 20:00N 36°54' E 012°20'1019.5
2018-Aug-13 19:30N 36°48' E 012°30'1019.7
2018-Aug-13 19:00N 36°42' E 012°40'1019.6
2018-Aug-13 18:28N 36°37' E 012°51'1019.1
2018-Aug-13 17:58N 36°31' E 013°01'918.7
2018-Aug-13 17:29N 36°27' E 013°11'2118.6
2018-Aug-13 16:23N 36°15' E 013°31'718.9
2018-Aug-13 16:00N 36°10' E 013°39'918.8
2018-Aug-13 15:30N 36°05' E 013°48'919.0
2018-Aug-13 15:01N 36°01' E 013°58'918.4
2018-Aug-13 14:30N 35°54' E 014°07'919.0
2018-Aug-13 14:00N 35°50' E 014°17'918.4
2018-Aug-13 13:31N 35°46' E 014°27'612.1
2018-Aug-13 13:00N 35°49' E 014°33'0 0.7
2018-Aug-13 12:30N 35°49' E 014°33'0 0.0
2018-Aug-13 11:54N 35°49' E 014°33'0 0.0
2018-Aug-13 10:30N 35°49' E 014°33'0 0.0
2018-Aug-13 09:57N 35°49' E 014°33'0 0.0
2018-Aug-13 09:30N 35°49' E 014°33'0 0.0
2018-Aug-13 08:51N 35°49' E 014°33'0 0.0
2018-Aug-13 08:30N 35°49' E 014°33'0 0.0
2018-Aug-13 08:00N 35°49' E 014°33'0 0.0
2018-Aug-13 07:30N 35°49' E 014°33'0 0.0
2018-Aug-13 07:00N 35°49' E 014°33'0 0.0
2018-Aug-13 06:30N 35°49' E 014°33'0 0.0
2018-Aug-13 05:57N 35°49' E 014°33'0 0.0
2018-Aug-13 05:30N 35°49' E 014°33'0 0.0
2018-Aug-13 04:57N 35°49' E 014°33'0 0.0
2018-Aug-13 04:30N 35°49' E 014°33'0 0.0
2018-Aug-13 04:00N 35°49' E 014°33'0 0.0
2018-Aug-13 03:30N 35°49' E 014°33'0 0.0
2018-Aug-13 03:00N 35°49' E 014°33'0 0.3
2018-Aug-13 02:30N 35°49' E 014°33'2 3.9
2018-Aug-13 01:58N 35°48' E 014°35'1 2.2
2018-Aug-13 01:30N 35°47' E 014°35'2 3.5
2018-Aug-13 01:00N 35°48' E 014°38'3 5.7
2018-Aug-13 00:30N 35°48' E 014°41'0 0.2
2018-Aug-13 00:00N 35°48' E 014°41'0 0.9
2018-Aug-12 23:30N 35°49' E 014°42'0 0.5
2018-Aug-12 23:00N 35°49' E 014°42'1 2.0
2018-Aug-12 22:30N 35°49' E 014°43'715.0
2018-Aug-12 22:00N 35°52' E 014°51'1018.8
2018-Aug-12 21:27N 36°01' E 014°58'919.3
2018-Aug-12 21:00N 36°09' E 015°00'918.0
2018-Aug-12 20:30N 36°17' E 015°06'1819.0
2018-Aug-12 19:32N 36°33' E 015°18'6818.6
2018-Aug-12 15:53N 37°40' E 015°32'719.0
2018-Aug-12 15:30N 37°47' E 015°32'1218.8
2018-Aug-12 14:51N 37°59' E 015°32'719.0
2018-Aug-12 14:30N 38°06' E 015°34'816.3
2018-Aug-12 14:00N 38°14' E 015°36'714.6
2018-Aug-12 13:30N 38°19' E 015°42'816.1
2018-Aug-12 13:00N 38°25' E 015°49'5 9.2
2018-Aug-12 12:30N 38°27' E 015°54'0 0.6
2018-Aug-12 11:56N 38°28' E 015°55'0 0.0
2018-Aug-12 11:26N 38°28' E 015°55'0 0.0
2018-Aug-12 10:56N 38°28' E 015°55'0 0.0
2018-Aug-12 10:26N 38°28' E 015°55'0 0.0
2018-Aug-12 09:56N 38°28' E 015°55'0 0.0
2018-Aug-12 09:26N 38°28' E 015°55'0 0.0
2018-Aug-12 08:44N 38°28' E 015°55'0 0.0
2018-Aug-12 08:26N 38°28' E 015°55'0 0.0
2018-Aug-12 07:56N 38°28' E 015°55'0 0.0
2018-Aug-12 07:26N 38°28' E 015°55'0 0.0
2018-Aug-12 06:56N 38°28' E 015°55'0 0.0
2018-Aug-12 06:26N 38°28' E 015°55'0 0.0
2018-Aug-12 05:44N 38°28' E 015°55'0 0.0
2018-Aug-12 05:20N 38°28' E 015°55'0 0.0
2018-Aug-12 04:56N 38°28' E 015°55'0 0.0
2018-Aug-12 04:26N 38°28' E 015°55'0 0.0
2018-Aug-12 03:56N 38°28' E 015°55'0 0.0
2018-Aug-12 03:20N 38°28' E 015°55'0 0.0
2018-Aug-12 02:56N 38°28' E 015°55'0 0.0
2018-Aug-12 02:26N 38°28' E 015°55'0 0.0
2018-Aug-12 01:56N 38°28' E 015°55'0 0.0
2018-Aug-12 01:26N 38°28' E 015°55'0 0.0
2018-Aug-12 00:56N 38°28' E 015°55'0 0.0
2018-Aug-12 00:26N 38°28' E 015°55'0 0.0
2018-Aug-11 23:56N 38°28' E 015°55'0 0.0
2018-Aug-11 23:26N 38°28' E 015°55'0 0.0
2018-Aug-11 22:56N 38°28' E 015°55'0 0.0
2018-Aug-11 22:26N 38°28' E 015°55'0 0.0
2018-Aug-11 21:56N 38°28' E 015°55'0 0.0
2018-Aug-11 21:26N 38°28' E 015°55'0 0.0
2018-Aug-11 20:50N 38°28' E 015°55'0 0.0
2018-Aug-11 20:26N 38°28' E 015°55'0 0.0
2018-Aug-11 19:50N 38°28' E 015°55'0 0.0
2018-Aug-11 19:26N 38°28' E 015°55'0 0.0
2018-Aug-11 18:50N 38°28' E 015°55'0 0.0
2018-Aug-11 18:26N 38°28' E 015°55'0 0.0
2018-Aug-11 17:56N 38°28' E 015°55'0 0.0
2018-Aug-11 17:26N 38°28' E 015°55'0 0.0
2018-Aug-11 16:50N 38°28' E 015°55'0 0.0
2018-Aug-11 16:26N 38°28' E 015°55'0 0.0
2018-Aug-11 15:56N 38°28' E 015°55'0 0.0
2018-Aug-11 15:26N 38°28' E 015°55'0 0.0
2018-Aug-11 14:56N 38°28' E 015°55'0 0.0
2018-Aug-11 14:26N 38°28' E 015°55'0 0.0
2018-Aug-11 13:50N 38°28' E 015°55'0 0.0
2018-Aug-11 13:26N 38°28' E 015°55'0 0.0
2018-Aug-11 12:56N 38°28' E 015°55'0 0.0
2018-Aug-11 12:26N 38°28' E 015°55'0 0.0
2018-Aug-11 11:56N 38°28' E 015°55'0 0.0
2018-Aug-11 11:26N 38°28' E 015°55'0 0.0
2018-Aug-11 10:56N 38°28' E 015°55'0 0.0
2018-Aug-11 10:26N 38°28' E 015°55'0 0.0
2018-Aug-11 09:56N 38°28' E 015°55'0 0.0
2018-Aug-11 09:26N 38°28' E 015°55'0 0.0
2018-Aug-11 08:56N 38°28' E 015°55'0 0.0
2018-Aug-11 08:26N 38°28' E 015°55'0 0.0
2018-Aug-11 07:56N 38°28' E 015°55'0 0.0
2018-Aug-11 07:26N 38°28' E 015°55'0 0.0
2018-Aug-11 06:56N 38°28' E 015°55'0 0.0
2018-Aug-11 06:26N 38°28' E 015°55'0 0.0
2018-Aug-11 05:56N 38°28' E 015°55'0 0.0
2018-Aug-11 05:26N 38°28' E 015°55'0 0.0
2018-Aug-11 04:56N 38°28' E 015°55'0 0.0
2018-Aug-11 04:26N 38°28' E 015°55'0 0.0
2018-Aug-11 03:56N 38°28' E 015°55'0 0.0
2018-Aug-11 03:26N 38°28' E 015°55'0 0.0
2018-Aug-11 02:50N 38°28' E 015°55'0 0.0
2018-Aug-11 02:26N 38°28' E 015°55'0 0.0
2018-Aug-11 01:50N 38°28' E 015°55'0 0.0
2018-Aug-11 01:26N 38°28' E 015°55'0 0.0
2018-Aug-11 00:56N 38°28' E 015°55'0 0.0
2018-Aug-11 00:20N 38°28' E 015°55'0 0.0
2018-Aug-10 23:56N 38°28' E 015°55'0 0.0
2018-Aug-10 23:26N 38°28' E 015°55'0 0.0
2018-Aug-10 22:56N 38°28' E 015°55'0 0.0
2018-Aug-10 22:26N 38°28' E 015°55'0 0.0
2018-Aug-10 21:56N 38°28' E 015°55'0 0.0
2018-Aug-10 21:18N 38°28' E 015°55'1 1.8
2018-Aug-10 20:59N 38°27' E 015°54'1 2.8
2018-Aug-10 20:30N 38°27' E 015°52'4 7.8
2018-Aug-10 20:01N 38°29' E 015°48'4 6.8
2018-Aug-10 19:27N 38°32' E 015°45'4 7.8
2018-Aug-10 18:59N 38°34' E 015°42'511.2
2018-Aug-10 18:31N 38°38' E 015°37'811.7
2018-Aug-10 17:48N 38°44' E 015°30'711.8
2018-Aug-10 17:13N 38°49' E 015°23'411.9
2018-Aug-10 16:53N 38°52' E 015°20'8711.6
2018-Aug-10 09:23N 39°52' E 013°59'511.8
2018-Aug-10 08:58N 39°56' E 013°54'2911.6
2018-Aug-10 06:29N 40°16' E 013°27'611.6
2018-Aug-10 06:00N 40°20' E 013°22'611.7
2018-Aug-10 05:30N 40°24' E 013°16'611.6
2018-Aug-10 05:00N 40°28' E 013°11'611.5
2018-Aug-10 04:30N 40°32' E 013°06'611.6
2018-Aug-10 03:59N 40°36' E 012°60'511.5
2018-Aug-10 03:30N 40°39' E 012°54'611.7
2018-Aug-10 03:00N 40°44' E 012°49'611.8
2018-Aug-10 02:31N 40°48' E 012°43'611.8
2018-Aug-10 02:00N 40°52' E 012°38'711.9
2018-Aug-10 01:27N 40°57' E 012°32'512.0
2018-Aug-10 01:00N 41°00' E 012°26'612.0
2018-Aug-10 00:31N 41°04' E 012°21'611.8
2018-Aug-10 00:00N 41°09' E 012°15'611.8
2018-Aug-09 23:30N 41°13' E 012°09'611.8
2018-Aug-09 23:00N 41°17' E 012°04'611.7
2018-Aug-09 22:30N 41°21' E 011°58'711.8
2018-Aug-09 21:57N 41°25' E 011°52'511.8
2018-Aug-09 21:31N 41°29' E 011°47'611.7
2018-Aug-09 21:00N 41°33' E 011°42'611.8
2018-Aug-09 20:30N 41°38' E 011°36'611.8
2018-Aug-09 19:59N 41°42' E 011°30'611.8
2018-Aug-09 19:30N 41°46' E 011°25'611.8
2018-Aug-09 18:59N 41°50' E 011°19'611.7
2018-Aug-09 18:30N 41°54' E 011°13'711.6
2018-Aug-09 17:56N 41°58' E 011°07'511.5
2018-Aug-09 17:30N 42°02' E 011°02'611.4
2018-Aug-09 17:01N 42°06' E 010°56'611.4
2018-Aug-09 16:31N 42°10' E 010°51'611.4
2018-Aug-09 16:00N 42°14' E 010°45'611.6
2018-Aug-09 15:31N 42°18' E 010°40'611.7
2018-Aug-09 14:59N 42°22' E 010°34'611.7
2018-Aug-09 14:30N 42°25' E 010°28'611.5
2018-Aug-09 13:58N 42°30' E 010°22'511.6
2018-Aug-09 13:31N 42°33' E 010°17'811.6
2018-Aug-09 12:47N 42°39' E 010°09'511.2
2018-Aug-09 12:19N 42°43' E 010°04'411.4
2018-Aug-09 12:01N 42°46' E 010°00'510.2
2018-Aug-09 11:30N 42°51' E 009°58'611.7
2018-Aug-09 11:00N 42°56' E 010°00'611.8
2018-Aug-09 10:30N 43°02' E 010°03'611.8
2018-Aug-09 10:01N 43°08' E 010°04'611.4
2018-Aug-09 09:30N 43°13' E 010°06'611.4
2018-Aug-09 09:00N 43°19' E 010°08'611.1
2018-Aug-09 08:30N 43°24' E 010°10'713.1
2018-Aug-09 08:01N 43°30' E 010°12'5 9.0
2018-Aug-09 07:31N 43°33' E 010°17'2 3.5
2018-Aug-09 07:00N 43°34' E 010°18'0 0.5
2018-Aug-09 06:28N 43°35' E 010°18'0 0.0
2018-Aug-09 05:58N 43°35' E 010°18'0 0.0
2018-Aug-09 05:28N 43°35' E 010°18'0 0.0
2018-Aug-09 04:58N 43°35' E 010°18'0 0.0
2018-Aug-09 04:28N 43°35' E 010°18'0 0.0
2018-Aug-09 03:58N 43°35' E 010°18'0 0.0
2018-Aug-09 03:28N 43°35' E 010°18'0 0.0
2018-Aug-09 02:58N 43°35' E 010°18'0 0.0
2018-Aug-09 02:28N 43°35' E 010°18'0 0.0
2018-Aug-09 01:58N 43°35' E 010°18'0 0.0
2018-Aug-09 01:28N 43°35' E 010°18'0 0.0
2018-Aug-09 00:58N 43°35' E 010°18'0 0.0
2018-Aug-09 00:28N 43°35' E 010°18'0 0.0
2018-Aug-08 23:58N 43°35' E 010°18'0 0.0
2018-Aug-08 23:25N 43°35' E 010°18'0 0.0
2018-Aug-08 22:58N 43°35' E 010°18'0 0.0
2018-Aug-08 22:28N 43°35' E 010°18'0 0.0
2018-Aug-08 21:58N 43°35' E 010°18'0 0.0
2018-Aug-08 21:28N 43°35' E 010°18'0 0.0
2018-Aug-08 20:58N 43°35' E 010°18'0 0.0
2018-Aug-08 20:28N 43°35' E 010°18'0 0.0
2018-Aug-08 19:58N 43°35' E 010°18'0 0.0
2018-Aug-08 19:28N 43°35' E 010°18'0 0.0
2018-Aug-08 18:58N 43°35' E 010°18'0 0.0
2018-Aug-08 18:28N 43°35' E 010°18'0 0.0
2018-Aug-08 17:58N 43°35' E 010°18'0 0.0
2018-Aug-08 17:28N 43°35' E 010°18'0 0.0
2018-Aug-08 16:49N 43°35' E 010°18'0 0.0
2018-Aug-08 16:28N 43°35' E 010°18'0 0.0
2018-Aug-08 15:52N 43°35' E 010°18'0 0.0
2018-Aug-08 15:25N 43°35' E 010°18'0 0.0
2018-Aug-08 14:55N 43°35' E 010°18'0 0.0
2018-Aug-08 14:28N 43°35' E 010°18'0 0.0
2018-Aug-08 13:58N 43°35' E 010°18'0 0.0
2018-Aug-08 13:28N 43°35' E 010°18'0 0.0
2018-Aug-08 12:58N 43°35' E 010°18'0 0.0
2018-Aug-08 12:28N 43°35' E 010°18'0 0.0
2018-Aug-08 11:52N 43°35' E 010°18'0 0.0
2018-Aug-08 11:28N 43°35' E 010°18'0 0.0
2018-Aug-08 10:58N 43°35' E 010°18'0 0.0
2018-Aug-08 10:28N 43°35' E 010°18'0 0.0
2018-Aug-08 09:55N 43°35' E 010°18'0 0.0
2018-Aug-08 09:28N 43°35' E 010°18'0 0.0
2018-Aug-08 08:58N 43°35' E 010°18'0 0.0
2018-Aug-08 08:28N 43°35' E 010°18'0 0.0
2018-Aug-08 07:58N 43°35' E 010°18'0 0.0
2018-Aug-08 07:28N 43°35' E 010°18'1 1.3
2018-Aug-08 07:00N 43°34' E 010°18'2 4.4
2018-Aug-08 06:30N 43°32' E 010°17'0 0.6
2018-Aug-08 06:01N 43°32' E 010°16'2 4.8
2018-Aug-08 05:30N 43°30' E 010°14'3 6.1
2018-Aug-08 05:01N 43°27' E 010°14'1 1.0
2018-Aug-08 04:30N 43°27' E 010°14'0 0.0
2018-Aug-08 04:00N 43°27' E 010°13'0 0.1
2018-Aug-08 03:30N 43°27' E 010°13'0 0.1
2018-Aug-08 03:01N 43°27' E 010°13'0 0.2
2018-Aug-08 02:30N 43°27' E 010°13'0 0.3
2018-Aug-08 02:00N 43°27' E 010°13'0 0.3
2018-Aug-08 01:30N 43°27' E 010°13'0 0.2
2018-Aug-08 01:00N 43°27' E 010°13'0 0.2
2018-Aug-08 00:31N 43°27' E 010°13'0 0.3
2018-Aug-07 23:59N 43°27' E 010°13'0 0.3
2018-Aug-07 23:30N 43°27' E 010°12'0 0.3
2018-Aug-07 23:01N 43°27' E 010°12'0 0.3
2018-Aug-07 22:30N 43°27' E 010°12'0 0.3
2018-Aug-07 22:01N 43°27' E 010°12'0 0.3
2018-Aug-07 21:30N 43°27' E 010°12'0 0.2
2018-Aug-07 21:01N 43°27' E 010°11'0 0.3
2018-Aug-07 20:30N 43°27' E 010°11'0 0.4
2018-Aug-07 19:59N 43°27' E 010°11'0 0.3
2018-Aug-07 19:31N 43°27' E 010°11'0 0.1
2018-Aug-07 19:01N 43°27' E 010°11'0 0.2
2018-Aug-07 18:31N 43°27' E 010°11'0 0.3
2018-Aug-07 18:01N 43°27' E 010°11'0 0.4
2018-Aug-07 17:30N 43°27' E 010°11'1 1.1
2018-Aug-07 17:01N 43°27' E 010°11'3 6.9
2018-Aug-07 16:30N 43°30' E 010°14'4 7.9
2018-Aug-07 16:01N 43°27' E 010°10'3 5.7
2018-Aug-07 15:30N 43°25' E 010°09'0 0.5
2018-Aug-07 15:00N 43°25' E 010°09'0 0.2
2018-Aug-07 14:31N 43°25' E 010°09'0 0.1
2018-Aug-07 14:00N 43°25' E 010°09'2 3.5
2018-Aug-07 13:30N 43°25' E 010°11'4 7.1
2018-Aug-07 13:00N 43°26' E 010°16'0 0.4
2018-Aug-07 12:30N 43°26' E 010°16'0 0.3
2018-Aug-07 12:00N 43°26' E 010°16'0 0.4
2018-Aug-07 11:31N 43°26' E 010°15'  
Track history (hours):
 
Tides and Currents Weather Stations Pressure Air Temp Water Temp Dewpoint Dewpoint Depression Visibility Wind Speed Wind Dir Waves Ship Positions

CSAV Traiguen

Last reported at 2018-Aug-17 11:28 UTC. Time now 2018-Aug-17 11:40 UTC.
Position N 39°26' W 000°20'.

Length 300 m; draft 11.5 m.

Type: Ship (hazmat cat D). MMSI: 636016125.

Date/timePositionNaut miles runAvg speedWind from/ knotsBaromVisibWave heightAir tempDewpointWater temp
2018-Aug-17 11:28N 39°26' W 000°20'0 0.0
2018-Aug-17 10:58N 39°26' W 000°20'0 0.0
2018-Aug-17 10:28N 39°26' W 000°20'0 0.0
2018-Aug-17 09:58N 39°26' W 000°20'0 0.0
2018-Aug-17 09:28N 39°26' W 000°20'0 0.0
2018-Aug-17 08:58N 39°26' W 000°20'0 0.0
2018-Aug-17 08:28N 39°26' W 000°20'0 0.0
2018-Aug-17 07:58N 39°26' W 000°20'0 0.0
2018-Aug-17 07:28N 39°26' W 000°20'0 0.0
2018-Aug-17 06:58N 39°26' W 000°20'0 0.0
2018-Aug-17 06:28N 39°26' W 000°20'0 0.0
2018-Aug-17 05:58N 39°26' W 000°20'0 0.0
2018-Aug-17 05:28N 39°26' W 000°20'0 0.0
2018-Aug-17 04:58N 39°26' W 000°20'0 0.0
2018-Aug-17 04:28N 39°26' W 000°20'0 0.0
2018-Aug-17 03:58N 39°26' W 000°20'0 0.0
2018-Aug-17 03:28N 39°26' W 000°20'0 0.0
2018-Aug-17 02:58N 39°26' W 000°20'0 0.0
2018-Aug-17 02:28N 39°26' W 000°20'0 0.0
2018-Aug-17 01:58N 39°26' W 000°20'0 0.0
2018-Aug-17 01:28N 39°26' W 000°20'0 0.0
2018-Aug-17 00:58N 39°26' W 000°20'0 0.0
2018-Aug-17 00:28N 39°26' W 000°20'0 0.0
2018-Aug-16 23:58N 39°26' W 000°20'0 0.0
2018-Aug-16 23:28N 39°26' W 000°20'0 0.0
2018-Aug-16 22:58N 39°26' W 000°20'0 0.0
2018-Aug-16 22:28N 39°26' W 000°20'0 0.0
2018-Aug-16 21:58N 39°26' W 000°20'0 0.0
2018-Aug-16 21:28N 39°26' W 000°20'0 0.0
2018-Aug-16 20:58N 39°26' W 000°20'0 0.0
2018-Aug-16 20:28N 39°26' W 000°20'0 0.0
2018-Aug-16 19:58N 39°26' W 000°20'0 0.0
2018-Aug-16 19:28N 39°26' W 000°20'0 0.0
2018-Aug-16 18:58N 39°26' W 000°20'0 0.0
2018-Aug-16 18:28N 39°26' W 000°20'0 0.0
2018-Aug-16 17:58N 39°26' W 000°20'0 0.0
2018-Aug-16 17:28N 39°26' W 000°20'0 0.0
2018-Aug-16 16:58N 39°26' W 000°20'0 0.0
2018-Aug-16 16:28N 39°26' W 000°20'0 0.0
2018-Aug-16 15:58N 39°26' W 000°20'0 0.0
2018-Aug-16 15:28N 39°26' W 000°20'0 0.0
2018-Aug-16 14:58N 39°26' W 000°20'0 0.0
2018-Aug-16 14:28N 39°26' W 000°20'0 0.0
2018-Aug-16 13:58N 39°26' W 000°20'0 0.0
2018-Aug-16 13:28N 39°26' W 000°20'0 0.3
2018-Aug-16 12:59N 39°26' W 000°20'0 0.0
2018-Aug-16 11:56N 39°26' W 000°20'0 0.0
2018-Aug-16 11:23N 39°26' W 000°20'0 0.0
2018-Aug-16 10:50N 39°26' W 000°20'0 0.0
2018-Aug-16 09:59N 39°26' W 000°20'0 0.0
2018-Aug-16 09:29N 39°26' W 000°20'0 0.0
2018-Aug-16 08:59N 39°26' W 000°20'0 0.0
2018-Aug-16 08:26N 39°26' W 000°19'0 0.0
2018-Aug-16 07:53N 39°26' W 000°20'0 0.0
2018-Aug-16 07:29N 39°26' W 000°20'0 0.0
2018-Aug-15 16:14N 39°26' W 000°19'0 1.8
2018-Aug-15 16:00N 39°26' W 000°19'3 5.7
2018-Aug-15 15:30N 39°25' W 000°16'3 6.5
2018-Aug-15 15:00N 39°24' W 000°12'4 1.6
2018-Aug-15 12:29N 39°23' W 000°06'0 0.7
2018-Aug-15 12:00N 39°23' W 000°06'1 0.7
2018-Aug-15 10:38N 39°24' W 000°05'0 0.7
2018-Aug-15 10:30N 39°24' W 000°05'0 0.7
2018-Aug-15 09:53N 39°24' W 000°05'0 0.7
2018-Aug-15 09:18N 39°25' W 000°04'1 0.7
2018-Aug-15 08:07N 39°25' W 000°04'0 0.7
2018-Aug-15 08:00N 39°25' W 000°04'1 1.0
2018-Aug-15 06:46N 39°25' W 000°02'9815.8
2018-Aug-15 00:35N 39°12' E 002°03'116.0
2018-Aug-15 00:30N 39°11' E 002°04'815.8
2018-Aug-15 00:00N 39°10' E 002°14'815.8
2018-Aug-14 23:30N 39°08' E 002°24'815.8
2018-Aug-14 22:59N 39°06' E 002°34'715.8
2018-Aug-14 22:30N 39°04' E 002°44'815.9
2018-Aug-14 22:00N 39°02' E 002°54'815.9
2018-Aug-14 21:30N 39°01' E 003°04'45617.9
2018-Aug-13 20:02N 36°54' E 012°19'119.3
2018-Aug-13 20:00N 36°54' E 012°20'1019.5
2018-Aug-13 19:30N 36°48' E 012°30'1019.7
2018-Aug-13 19:00N 36°42' E 012°40'1019.6
2018-Aug-13 18:28N 36°37' E 012°51'1019.1
2018-Aug-13 17:58N 36°31' E 013°01'918.7
2018-Aug-13 17:29N 36°27' E 013°11'2118.6
2018-Aug-13 16:23N 36°15' E 013°31'718.9
2018-Aug-13 16:00N 36°10' E 013°39'918.8
2018-Aug-13 15:30N 36°05' E 013°48'919.0
2018-Aug-13 15:01N 36°01' E 013°58'918.4
2018-Aug-13 14:30N 35°54' E 014°07'919.0
2018-Aug-13 14:00N 35°50' E 014°17'918.4
2018-Aug-13 13:31N 35°46' E 014°27'612.1
2018-Aug-13 13:00N 35°49' E 014°33'0 0.7
2018-Aug-13 12:30N 35°49' E 014°33'0 0.0
2018-Aug-13 11:54N 35°49' E 014°33'0 0.0
2018-Aug-13 10:30N 35°49' E 014°33'0 0.0
2018-Aug-13 09:57N 35°49' E 014°33'0 0.0
2018-Aug-13 09:30N 35°49' E 014°33'0 0.0
2018-Aug-13 08:51N 35°49' E 014°33'0 0.0
2018-Aug-13 08:30N 35°49' E 014°33'0 0.0
2018-Aug-13 08:00N 35°49' E 014°33'0 0.0
2018-Aug-13 07:30N 35°49' E 014°33'0 0.0
2018-Aug-13 07:00N 35°49' E 014°33'0 0.0
2018-Aug-13 06:30N 35°49' E 014°33'0 0.0
2018-Aug-13 05:57N 35°49' E 014°33'0 0.0
2018-Aug-13 05:30N 35°49' E 014°33'0 0.0
2018-Aug-13 04:57N 35°49' E 014°33'0 0.0
2018-Aug-13 04:30N 35°49' E 014°33'0 0.0
2018-Aug-13 04:00N 35°49' E 014°33'0 0.0
2018-Aug-13 03:30N 35°49' E 014°33'0 0.0
2018-Aug-13 03:00N 35°49' E 014°33'0 0.3
2018-Aug-13 02:30N 35°49' E 014°33'2 3.9
2018-Aug-13 01:58N 35°48' E 014°35'1 2.2
2018-Aug-13 01:30N 35°47' E 014°35'2 3.5
2018-Aug-13 01:00N 35°48' E 014°38'3 5.7
2018-Aug-13 00:30N 35°48' E 014°41'0 0.2
2018-Aug-13 00:00N 35°48' E 014°41'0 0.9
2018-Aug-12 23:30N 35°49' E 014°42'0 0.5
2018-Aug-12 23:00N 35°49' E 014°42'1 2.0
2018-Aug-12 22:30N 35°49' E 014°43'715.0
2018-Aug-12 22:00N 35°52' E 014°51'1018.8
2018-Aug-12 21:27N 36°01' E 014°58'919.3
2018-Aug-12 21:00N 36°09' E 015°00'918.0
2018-Aug-12 20:30N 36°17' E 015°06'1819.0
2018-Aug-12 19:32N 36°33' E 015°18'6818.6
2018-Aug-12 15:53N 37°40' E 015°32'719.0
2018-Aug-12 15:30N 37°47' E 015°32'1218.8
2018-Aug-12 14:51N 37°59' E 015°32'719.0
2018-Aug-12 14:30N 38°06' E 015°34'816.3
2018-Aug-12 14:00N 38°14' E 015°36'714.6
2018-Aug-12 13:30N 38°19' E 015°42'816.1
2018-Aug-12 13:00N 38°25' E 015°49'5 9.2
2018-Aug-12 12:30N 38°27' E 015°54'0 0.6
2018-Aug-12 11:56N 38°28' E 015°55'0 0.0
2018-Aug-12 11:26N 38°28' E 015°55'0 0.0
2018-Aug-12 10:56N 38°28' E 015°55'0 0.0
2018-Aug-12 10:26N 38°28' E 015°55'0 0.0
2018-Aug-12 09:56N 38°28' E 015°55'0 0.0
2018-Aug-12 09:26N 38°28' E 015°55'0 0.0
2018-Aug-12 08:44N 38°28' E 015°55'0 0.0
2018-Aug-12 08:26N 38°28' E 015°55'0 0.0
2018-Aug-12 07:56N 38°28' E 015°55'0 0.0
2018-Aug-12 07:26N 38°28' E 015°55'0 0.0
2018-Aug-12 06:56N 38°28' E 015°55'0 0.0
2018-Aug-12 06:26N 38°28' E 015°55'0 0.0
2018-Aug-12 05:44N 38°28' E 015°55'0 0.0
2018-Aug-12 05:20N 38°28' E 015°55'0 0.0
2018-Aug-12 04:56N 38°28' E 015°55'0 0.0
2018-Aug-12 04:26N 38°28' E 015°55'0 0.0
2018-Aug-12 03:56N 38°28' E 015°55'0 0.0
2018-Aug-12 03:20N 38°28' E 015°55'0 0.0
2018-Aug-12 02:56N 38°28' E 015°55'0 0.0
2018-Aug-12 02:26N 38°28' E 015°55'0 0.0
2018-Aug-12 01:56N 38°28' E 015°55'0 0.0
2018-Aug-12 01:26N 38°28' E 015°55'0 0.0
2018-Aug-12 00:56N 38°28' E 015°55'0 0.0
2018-Aug-12 00:26N 38°28' E 015°55'0 0.0
2018-Aug-11 23:56N 38°28' E 015°55'0 0.0
2018-Aug-11 23:26N 38°28' E 015°55'0 0.0
2018-Aug-11 22:56N 38°28' E 015°55'0 0.0
2018-Aug-11 22:26N 38°28' E 015°55'0 0.0
2018-Aug-11 21:56N 38°28' E 015°55'0 0.0
2018-Aug-11 21:26N 38°28' E 015°55'0 0.0
2018-Aug-11 20:50N 38°28' E 015°55'0 0.0
2018-Aug-11 20:26N 38°28' E 015°55'0 0.0
2018-Aug-11 19:50N 38°28' E 015°55'0 0.0
2018-Aug-11 19:26N 38°28' E 015°55'0 0.0
2018-Aug-11 18:50N 38°28' E 015°55'0 0.0
2018-Aug-11 18:26N 38°28' E 015°55'0 0.0
2018-Aug-11 17:56N 38°28' E 015°55'0 0.0
2018-Aug-11 17:26N 38°28' E 015°55'0 0.0
2018-Aug-11 16:50N 38°28' E 015°55'0 0.0
2018-Aug-11 16:26N 38°28' E 015°55'0 0.0
2018-Aug-11 15:56N 38°28' E 015°55'0 0.0
2018-Aug-11 15:26N 38°28' E 015°55'0 0.0
2018-Aug-11 14:56N 38°28' E 015°55'0 0.0
2018-Aug-11 14:26N 38°28' E 015°55'0 0.0
2018-Aug-11 13:50N 38°28' E 015°55'0 0.0
2018-Aug-11 13:26N 38°28' E 015°55'0 0.0
2018-Aug-11 12:56N 38°28' E 015°55'0 0.0
2018-Aug-11 12:26N 38°28' E 015°55'0 0.0
2018-Aug-11 11:56N 38°28' E 015°55'0 0.0
2018-Aug-11 11:26N 38°28' E 015°55'0 0.0
2018-Aug-11 10:56N 38°28' E 015°55'0 0.0
2018-Aug-11 10:26N 38°28' E 015°55'0 0.0
2018-Aug-11 09:56N 38°28' E 015°55'0 0.0
2018-Aug-11 09:26N 38°28' E 015°55'0 0.0
2018-Aug-11 08:56N 38°28' E 015°55'0 0.0
2018-Aug-11 08:26N 38°28' E 015°55'0 0.0
2018-Aug-11 07:56N 38°28' E 015°55'0 0.0
2018-Aug-11 07:26N 38°28' E 015°55'0 0.0
2018-Aug-11 06:56N 38°28' E 015°55'0 0.0
2018-Aug-11 06:26N 38°28' E 015°55'0 0.0
2018-Aug-11 05:56N 38°28' E 015°55'0 0.0
2018-Aug-11 05:26N 38°28' E 015°55'0 0.0
2018-Aug-11 04:56N 38°28' E 015°55'0 0.0
2018-Aug-11 04:26N 38°28' E 015°55'0 0.0
2018-Aug-11 03:56N 38°28' E 015°55'0 0.0
2018-Aug-11 03:26N 38°28' E 015°55'0 0.0
2018-Aug-11 02:50N 38°28' E 015°55'0 0.0
2018-Aug-11 02:26N 38°28' E 015°55'0 0.0
2018-Aug-11 01:50N 38°28' E 015°55'0 0.0
2018-Aug-11 01:26N 38°28' E 015°55'0 0.0
2018-Aug-11 00:56N 38°28' E 015°55'0 0.0
2018-Aug-11 00:20N 38°28' E 015°55'0 0.0
2018-Aug-10 23:56N 38°28' E 015°55'0 0.0
2018-Aug-10 23:26N 38°28' E 015°55'0 0.0
2018-Aug-10 22:56N 38°28' E 015°55'0 0.0
2018-Aug-10 22:26N 38°28' E 015°55'0 0.0
2018-Aug-10 21:56N 38°28' E 015°55'0 0.0
2018-Aug-10 21:18N 38°28' E 015°55'1 1.8
2018-Aug-10 20:59N 38°27' E 015°54'1 2.8
2018-Aug-10 20:30N 38°27' E 015°52'4 7.8
2018-Aug-10 20:01N 38°29' E 015°48'4 6.8
2018-Aug-10 19:27N 38°32' E 015°45'4 7.8
2018-Aug-10 18:59N 38°34' E 015°42'511.2
2018-Aug-10 18:31N 38°38' E 015°37'811.7
2018-Aug-10 17:48N 38°44' E 015°30'711.8
2018-Aug-10 17:13N 38°49' E 015°23'411.9
2018-Aug-10 16:53N 38°52' E 015°20'8711.6
2018-Aug-10 09:23N 39°52' E 013°59'511.8
2018-Aug-10 08:58N 39°56' E 013°54'2911.6
2018-Aug-10 06:29N 40°16' E 013°27'611.6
2018-Aug-10 06:00N 40°20' E 013°22'611.7
2018-Aug-10 05:30N 40°24' E 013°16'611.6
2018-Aug-10 05:00N 40°28' E 013°11'611.5
2018-Aug-10 04:30N 40°32' E 013°06'611.6
2018-Aug-10 03:59N 40°36' E 012°60'511.5
2018-Aug-10 03:30N 40°39' E 012°54'611.7
2018-Aug-10 03:00N 40°44' E 012°49'611.8
2018-Aug-10 02:31N 40°48' E 012°43'611.8
2018-Aug-10 02:00N 40°52' E 012°38'711.9
2018-Aug-10 01:27N 40°57' E 012°32'512.0
2018-Aug-10 01:00N 41°00' E 012°26'612.0
2018-Aug-10 00:31N 41°04' E 012°21'611.8
2018-Aug-10 00:00N 41°09' E 012°15'611.8
2018-Aug-09 23:30N 41°13' E 012°09'611.8
2018-Aug-09 23:00N 41°17' E 012°04'611.7
2018-Aug-09 22:30N 41°21' E 011°58'711.8
2018-Aug-09 21:57N 41°25' E 011°52'511.8
2018-Aug-09 21:31N 41°29' E 011°47'611.7
2018-Aug-09 21:00N 41°33' E 011°42'611.8
2018-Aug-09 20:30N 41°38' E 011°36'611.8
2018-Aug-09 19:59N 41°42' E 011°30'611.8
2018-Aug-09 19:30N 41°46' E 011°25'611.8
2018-Aug-09 18:59N 41°50' E 011°19'611.7
2018-Aug-09 18:30N 41°54' E 011°13'711.6
2018-Aug-09 17:56N 41°58' E 011°07'511.5
2018-Aug-09 17:30N 42°02' E 011°02'611.4
2018-Aug-09 17:01N 42°06' E 010°56'611.4
2018-Aug-09 16:31N 42°10' E 010°51'611.4
2018-Aug-09 16:00N 42°14' E 010°45'611.6
2018-Aug-09 15:31N 42°18' E 010°40'611.7
2018-Aug-09 14:59N 42°22' E 010°34'611.7
2018-Aug-09 14:30N 42°25' E 010°28'611.5
2018-Aug-09 13:58N 42°30' E 010°22'511.6
2018-Aug-09 13:31N 42°33' E 010°17'811.6
2018-Aug-09 12:47N 42°39' E 010°09'511.2
2018-Aug-09 12:19N 42°43' E 010°04'411.4
2018-Aug-09 12:01N 42°46' E 010°00'510.2
2018-Aug-09 11:30N 42°51' E 009°58'611.7
2018-Aug-09 11:00N 42°56' E 010°00'611.8
2018-Aug-09 10:30N 43°02' E 010°03'611.8
2018-Aug-09 10:01N 43°08' E 010°04'611.4
2018-Aug-09 09:30N 43°13' E 010°06'611.4
2018-Aug-09 09:00N 43°19' E 010°08'611.1
2018-Aug-09 08:30N 43°24' E 010°10'713.1
2018-Aug-09 08:01N 43°30' E 010°12'5 9.0
2018-Aug-09 07:31N 43°33' E 010°17'2 3.5
2018-Aug-09 07:00N 43°34' E 010°18'0 0.5
2018-Aug-09 06:28N 43°35' E 010°18'0 0.0
2018-Aug-09 05:58N 43°35' E 010°18'0 0.0
2018-Aug-09 05:28N 43°35' E 010°18'0 0.0
2018-Aug-09 04:58N 43°35' E 010°18'0 0.0
2018-Aug-09 04:28N 43°35' E 010°18'0 0.0
2018-Aug-09 03:58N 43°35' E 010°18'0 0.0
2018-Aug-09 03:28N 43°35' E 010°18'0 0.0
2018-Aug-09 02:58N 43°35' E 010°18'0 0.0
2018-Aug-09 02:28N 43°35' E 010°18'0 0.0
2018-Aug-09 01:58N 43°35' E 010°18'0 0.0
2018-Aug-09 01:28N 43°35' E 010°18'0 0.0
2018-Aug-09 00:58N 43°35' E 010°18'0 0.0
2018-Aug-09 00:28N 43°35' E 010°18'0 0.0
2018-Aug-08 23:58N 43°35' E 010°18'0 0.0
2018-Aug-08 23:25N 43°35' E 010°18'0 0.0
2018-Aug-08 22:58N 43°35' E 010°18'0 0.0
2018-Aug-08 22:28N 43°35' E 010°18'0 0.0
2018-Aug-08 21:58N 43°35' E 010°18'0 0.0
2018-Aug-08 21:28N 43°35' E 010°18'0 0.0
2018-Aug-08 20:58N 43°35' E 010°18'0 0.0
2018-Aug-08 20:28N 43°35' E 010°18'0 0.0
2018-Aug-08 19:58N 43°35' E 010°18'0 0.0
2018-Aug-08 19:28N 43°35' E 010°18'0 0.0
2018-Aug-08 18:58N 43°35' E 010°18'0 0.0
2018-Aug-08 18:28N 43°35' E 010°18'0 0.0
2018-Aug-08 17:58N 43°35' E 010°18'0 0.0
2018-Aug-08 17:28N 43°35' E 010°18'0 0.0
2018-Aug-08 16:49N 43°35' E 010°18'0 0.0
2018-Aug-08 16:28N 43°35' E 010°18'0 0.0
2018-Aug-08 15:52N 43°35' E 010°18'0 0.0
2018-Aug-08 15:25N 43°35' E 010°18'0 0.0
2018-Aug-08 14:55N 43°35' E 010°18'0 0.0
2018-Aug-08 14:28N 43°35' E 010°18'0 0.0
2018-Aug-08 13:58N 43°35' E 010°18'0 0.0
2018-Aug-08 13:28N 43°35' E 010°18'0 0.0
2018-Aug-08 12:58N 43°35' E 010°18'0 0.0
2018-Aug-08 12:28N 43°35' E 010°18'0 0.0
2018-Aug-08 11:52N 43°35' E 010°18'0 0.0
2018-Aug-08 11:28N 43°35' E 010°18'0 0.0
2018-Aug-08 10:58N 43°35' E 010°18'0 0.0
2018-Aug-08 10:28N 43°35' E 010°18'0 0.0
2018-Aug-08 09:55N 43°35' E 010°18'0 0.0
2018-Aug-08 09:28N 43°35' E 010°18'0 0.0
2018-Aug-08 08:58N 43°35' E 010°18'0 0.0
2018-Aug-08 08:28N 43°35' E 010°18'0 0.0
2018-Aug-08 07:58N 43°35' E 010°18'0 0.0
2018-Aug-08 07:28N 43°35' E 010°18'1 1.3
2018-Aug-08 07:00N 43°34' E 010°18'2 4.4
2018-Aug-08 06:30N 43°32' E 010°17'0 0.6
2018-Aug-08 06:01N 43°32' E 010°16'2 4.8
2018-Aug-08 05:30N 43°30' E 010°14'3 6.1
2018-Aug-08 05:01N 43°27' E 010°14'1 1.0
2018-Aug-08 04:30N 43°27' E 010°14'0 0.0
2018-Aug-08 04:00N 43°27' E 010°13'0 0.1
2018-Aug-08 03:30N 43°27' E 010°13'0 0.1
2018-Aug-08 03:01N 43°27' E 010°13'0 0.2
2018-Aug-08 02:30N 43°27' E 010°13'0 0.3
2018-Aug-08 02:00N 43°27' E 010°13'0 0.3
2018-Aug-08 01:30N 43°27' E 010°13'0 0.2
2018-Aug-08 01:00N 43°27' E 010°13'0 0.2
2018-Aug-08 00:31N 43°27' E 010°13'0 0.3
2018-Aug-07 23:59N 43°27' E 010°13'0 0.3
2018-Aug-07 23:30N 43°27' E 010°12'0 0.3
2018-Aug-07 23:01N 43°27' E 010°12'0 0.3
2018-Aug-07 22:30N 43°27' E 010°12'0 0.3
2018-Aug-07 22:01N 43°27' E 010°12'0 0.3
2018-Aug-07 21:30N 43°27' E 010°12'0 0.2
2018-Aug-07 21:01N 43°27' E 010°11'0 0.3
2018-Aug-07 20:30N 43°27' E 010°11'0 0.4
2018-Aug-07 19:59N 43°27' E 010°11'0 0.3
2018-Aug-07 19:31N 43°27' E 010°11'0 0.1
2018-Aug-07 19:01N 43°27' E 010°11'0 0.2
2018-Aug-07 18:31N 43°27' E 010°11'0 0.3
2018-Aug-07 18:01N 43°27' E 010°11'0 0.4
2018-Aug-07 17:30N 43°27' E 010°11'1 1.1
2018-Aug-07 17:01N 43°27' E 010°11'3 6.9
2018-Aug-07 16:30N 43°30' E 010°14'4 7.9
2018-Aug-07 16:01N 43°27' E 010°10'3 5.7
2018-Aug-07 15:30N 43°25' E 010°09'0 0.5
2018-Aug-07 15:00N 43°25' E 010°09'0 0.2
2018-Aug-07 14:31N 43°25' E 010°09'0 0.1
2018-Aug-07 14:00N 43°25' E 010°09'2 3.5
2018-Aug-07 13:30N 43°25' E 010°11'4 7.1
2018-Aug-07 13:00N 43°26' E 010°16'0 0.4
2018-Aug-07 12:30N 43°26' E 010°16'0 0.3
2018-Aug-07 12:00N 43°26' E 010°16'0 0.4
2018-Aug-07 11:31N 43°26' E 010°15'  

Dump ship's entire track history